Time;durP1;ratioP1;P1;durP2;ratioP2;P2;SDS_P1;SDS_P2;PMS_P1;PMS_P2;Temp;Humidity;BMP_temperature;BMP_pressure;BME280_temperature;BME280_humidity;BME280_pressure;Samples;Min_cycle;Max_cycle;Signal;HPM_P1;HPM_P2
2023/06/25 00:01:06;;;;;;;11.90;9.10;;;;;;;15.15;80.16;100769.17;104308;277;119934;-55
2023/06/25 00:03:56;;;;;;;13.00;9.70;;;;;;;15.12;80.08;100770.71;104328;277;106116;-55
2023/06/25 00:06:30;;;;;;;11.80;10.00;;;;;;;15.11;80.19;100770.67;104329;275;114773;-55
2023/06/25 00:09:04;;;;;;;11.40;9.00;;;;;;;15.07;80.22;100768.30;104324;277;97241;-55
2023/06/25 00:11:38;;;;;;;10.60;9.50;;;;;;;15.01;80.35;100771.09;104785;277;96832;-55
2023/06/25 00:14:12;;;;;;;11.70;9.50;;;;;;;14.98;80.36;100770.62;104750;277;120819;-55
2023/06/25 00:16:46;;;;;;;12.50;9.70;;;;;;;14.94;80.51;100770.59;104333;277;103351;-55
2023/06/25 00:19:20;;;;;;;10.80;9.30;;;;;;;14.89;80.53;100769.65;104266;277;114624;-55
2023/06/25 00:21:54;;;;;;;10.80;9.60;;;;;;;14.88;80.62;100766.77;104304;277;95565;-55
2023/06/25 00:24:28;;;;;;;11.00;9.80;;;;;;;14.85;80.81;100771.46;104312;277;96907;-55
2023/06/25 00:27:02;;;;;;;13.00;10.60;;;;;;;14.87;81.15;100767.91;104789;277;120070;-55
2023/06/25 00:29:36;;;;;;;12.60;10.10;;;;;;;14.90;81.18;100768.74;104293;277;105512;-55
2023/06/25 00:32:12;;;;;;;11.30;10.00;;;;;;;14.87;81.26;100769.00;104283;277;113352;-55
2023/06/25 00:34:46;;;;;;;12.30;11.00;;;;;;;14.84;81.38;100765.30;104319;277;96805;-55
2023/06/25 00:37:21;;;;;;;14.40;10.50;;;;;;;14.82;81.32;100766.44;104338;277;98070;-55
2023/06/25 00:39:55;;;;;;;17.40;11.50;;;;;;;14.80;81.24;100769.03;104313;277;121015;-56
2023/06/25 00:42:33;;;;;;;11.70;10.10;;;;;;;14.75;81.45;100761.83;104315;277;105193;-55
2023/06/25 00:45:08;;;;;;;13.70;10.30;;;;;;;14.73;81.43;100762.41;104316;277;114037;-55
2023/06/25 00:47:45;;;;;;;13.30;10.00;;;;;;;14.69;81.45;100759.42;104314;277;96755;-55
2023/06/25 00:50:21;;;;;;;14.00;11.30;;;;;;;14.66;81.72;100761.56;104815;277;97856;-55
2023/06/25 00:52:57;;;;;;;11.00;9.80;;;;;;;14.63;81.82;100755.38;104346;277;120787;-55
2023/06/25 00:55:30;;;;;;;12.70;10.80;;;;;;;14.62;81.86;100755.62;104788;277;104103;-55
2023/06/25 00:58:05;;;;;;;12.00;10.20;;;;;;;14.59;82.04;100752.89;104306;277;114904;-55
2023/06/25 01:00:40;;;;;;;11.80;10.20;;;;;;;14.58;82.02;100756.08;104749;277;95964;-55
2023/06/25 01:03:26;;;;;;;14.00;10.60;;;;;;;14.57;82.01;100756.54;104744;277;96728;-55
2023/06/25 01:06:10;;;;;;;13.30;10.30;;;;;;;14.56;82.19;100757.15;104283;277;119879;-55
2023/06/25 01:08:50;;;;;;;11.20;10.00;;;;;;;14.54;82.29;100755.69;104774;277;105468;-55
2023/06/25 01:11:24;;;;;;;11.30;9.30;;;;;;;14.51;82.25;100752.45;104785;277;114246;-57
2023/06/25 01:13:59;;;;;;;12.50;9.60;;;;;;;14.49;82.24;100747.72;104303;277;97430;-57
2023/06/25 01:16:33;;;;;;;12.70;9.70;;;;;;;14.45;82.27;100751.23;104308;277;98142;-55
2023/06/25 01:19:07;;;;;;;11.10;9.40;;;;;;;14.42;82.29;100749.35;104081;277;118831;-55
2023/06/25 01:21:42;;;;;;;12.60;9.60;;;;;;;14.39;82.25;100748.05;103929;279;104666;-55
2023/06/25 01:24:16;;;;;;;10.20;8.80;;;;;;;14.36;82.26;100750.41;104103;282;113757;-55
2023/06/25 01:26:54;;;;;;;11.30;9.20;;;;;;;14.32;82.17;100747.35;104101;279;95504;-55
2023/06/25 01:29:28;;;;;;;11.90;9.10;;;;;;;14.27;82.19;100743.29;104534;279;98701;-55
2023/06/25 01:32:01;;;;;;;;;;;;;;;14.23;82.24;100736.75;104098;278;120444;-55
2023/06/25 01:34:35;;;;;;;9.70;8.70;;;;;;;14.16;82.12;100739.05;104120;278;104104;-53
2023/06/25 01:37:09;;;;;;;10.60;9.40;;;;;;;14.15;82.23;100736.52;104104;278;114219;-56
2023/06/25 01:39:43;;;;;;;10.60;8.70;;;;;;;14.12;82.37;100738.06;104099;279;96128;-56
2023/06/25 01:42:17;;;;;;;10.50;8.90;;;;;;;14.10;82.53;100743.66;104101;279;98105;-56
2023/06/25 01:44:52;;;;;;;10.50;8.90;;;;;;;14.06;82.47;100743.01;104119;278;119542;-56
2023/06/25 01:47:26;;;;;;;9.30;8.30;;;;;;;14.03;82.41;100746.01;104108;278;104880;-56
2023/06/25 01:50:00;;;;;;;9.50;8.50;;;;;;;14.02;82.69;100751.39;104084;278;115310;-54
2023/06/25 01:52:34;;;;;;;10.80;8.50;;;;;;;13.98;82.63;100746.20;104476;282;96142;-54
2023/06/25 01:55:10;;;;;;;9.40;8.20;;;;;;;13.94;82.64;100749.29;104513;278;97240;-56
2023/06/25 01:57:44;;;;;;;11.10;8.60;;;;;;;13.91;82.67;100750.60;104480;278;118640;-57
2023/06/25 02:00:20;;;;;;;9.50;8.30;;;;;;;13.88;82.67;100746.84;104087;267;103957;-54
2023/06/25 02:02:54;;;;;;;9.30;8.30;;;;;;;13.83;82.77;100746.84;104086;278;114121;-54
2023/06/25 02:05:28;;;;;;;10.70;9.00;;;;;;;13.80;82.82;100744.00;104489;278;96690;-56
2023/06/25 02:08:03;;;;;;;14.10;8.60;;;;;;;13.81;83.04;100744.58;104114;279;96901;-56
2023/06/25 02:10:37;;;;;;;10.60;8.30;;;;;;;13.82;83.21;100747.71;104095;279;119627;-53
2023/06/25 02:13:11;;;;;;;9.40;8.00;;;;;;;13.79;83.00;100737.94;104102;278;104366;-54
2023/06/25 02:15:45;;;;;;;10.10;8.40;;;;;;;13.77;83.13;100738.41;104085;278;114862;-54
2023/06/25 02:18:19;;;;;;;9.60;8.30;;;;;;;13.74;83.11;100734.64;103915;280;95801;-54
2023/06/25 02:20:53;;;;;;;10.20;8.90;;;;;;;13.72;83.15;100736.31;104114;278;97021;-54
2023/06/25 02:23:27;;;;;;;10.10;8.20;;;;;;;13.72;83.14;100734.55;104108;278;118847;-54
2023/06/25 02:26:02;;;;;;;11.30;8.70;;;;;;;13.73;83.22;100735.73;104066;279;103327;-56
2023/06/25 02:28:36;;;;;;;9.50;8.20;;;;;;;13.75;83.27;100736.83;104488;279;112838;-57
2023/06/25 02:31:10;;;;;;;8.90;8.00;;;;;;;13.78;83.50;100733.88;104510;279;96053;-56
2023/06/25 02:33:44;;;;;;;8.50;7.30;;;;;;;13.78;83.57;100733.71;104084;279;96837;-56
2023/06/25 02:36:18;;;;;;;9.60;7.50;;;;;;;13.81;83.69;100735.73;104084;278;120207;-54
2023/06/25 02:38:52;;;;;;;8.30;7.40;;;;;;;13.81;83.62;100734.23;104054;278;104401;-54
2023/06/25 02:41:26;;;;;;;9.90;8.10;;;;;;;13.85;83.73;100729.69;104046;279;114984;-54
2023/06/25 02:44:00;;;;;;;10.90;8.80;;;;;;;13.87;83.68;100730.16;104499;279;97290;-54
2023/06/25 02:46:35;;;;;;;11.00;8.10;;;;;;;13.91;83.65;100726.88;104532;279;97641;-57
2023/06/25 02:49:09;;;;;;;9.60;8.00;;;;;;;13.97;83.84;100728.23;104515;279;121036;-57
2023/06/25 02:51:42;;;;;;;;;;;;;;;14.07;83.74;100728.02;104097;278;105386;-54
2023/06/25 02:54:15;;;;;;;8.30;7.40;;;;;;;14.12;83.87;100724.03;104060;279;112807;-54
2023/06/25 02:56:50;;;;;;;8.50;7.50;;;;;;;14.20;83.95;100729.70;104093;282;96399;-54
2023/06/25 02:59:24;;;;;;;8.20;7.20;;;;;;;14.30;83.90;100728.77;104563;279;98088;-54
2023/06/25 03:01:58;;;;;;;8.40;7.00;;;;;;;14.43;83.99;100730.19;104583;279;119831;-53
2023/06/25 03:04:33;;;;;;;8.40;7.30;;;;;;;14.57;83.94;100727.59;104129;279;105638;-54
2023/06/25 03:07:06;;;;;;;;;;;;;;;14.68;83.95;100729.27;104092;279;112450;-56
2023/06/25 03:09:40;;;;;;;9.50;7.60;;;;;;;14.82;83.65;100729.58;104076;279;97191;-56
2023/06/25 03:12:15;;;;;;;8.80;7.50;;;;;;;14.95;83.75;100734.89;103927;280;98549;-53
2023/06/25 03:14:49;;;;;;;9.90;7.50;;;;;;;15.06;83.33;100740.58;104096;279;120746;-53
2023/06/25 03:17:23;;;;;;;8.50;7.40;;;;;;;15.16;83.33;100743.20;104527;279;104880;-53
2023/06/25 03:19:57;;;;;;;9.10;7.20;;;;;;;15.24;83.31;100743.48;104086;279;114537;-54
2023/06/25 03:22:30;;;;;;;;;;;;;;;15.37;83.38;100740.08;104069;279;96482;-54
2023/06/25 03:25:05;;;;;;;11.20;7.80;;;;;;;15.39;83.05;100741.03;104109;278;96181;-56
2023/06/25 03:27:39;;;;;;;9.60;7.70;;;;;;;15.54;82.84;100743.22;104079;278;119676;-57
2023/06/25 03:30:14;;;;;;;10.70;8.00;;;;;;;15.90;82.49;100742.44;104090;279;104233;-54
2023/06/25 03:32:48;;;;;;;10.90;8.30;;;;;;;16.67;81.47;100737.00;104115;279;114046;-54
2023/06/25 03:35:22;;;;;;;10.50;7.80;;;;;;;17.11;80.90;100740.35;104107;279;93568;-57
2023/06/25 03:37:56;;;;;;;9.50;7.60;;;;;;;17.78;80.04;100738.22;104111;279;97326;-57
2023/06/25 03:40:30;;;;;;;8.50;7.60;;;;;;;18.42;78.95;100739.23;103951;280;123007;-57
2023/06/25 03:43:02;;;;;;;;;;;;;;;18.82;77.92;100739.71;104085;279;105169;-57
2023/06/25 03:45:36;;;;;;;7.70;6.70;;;;;;;19.87;77.15;100738.20;104566;282;113218;-55
2023/06/25 03:48:11;;;;;;;8.80;7.60;;;;;;;19.88;75.59;100729.16;104539;279;92812;-54
2023/06/25 03:50:45;;;;;;;11.00;7.60;;;;;;;19.57;75.33;100731.60;104104;279;97172;-54
2023/06/25 03:53:21;;;;;;;8.30;7.30;;;;;;;19.51;74.94;100731.56;104108;279;118861;-54
2023/06/25 03:55:55;;;;;;;9.50;7.10;;;;;;;19.58;74.47;100727.08;104523;266;104412;-57
2023/06/25 03:58:29;;;;;;;9.10;7.20;;;;;;;20.08;74.15;100723.48;104090;279;114718;-57
2023/06/25 04:01:04;;;;;;;10.10;7.50;;;;;;;21.08;73.01;100722.04;104090;279;94113;-57
2023/06/25 04:03:36;;;;;;;;;;;;;;;21.96;71.69;100725.13;104114;278;97342;-57
2023/06/25 04:06:10;;;;;;;7.80;6.90;;;;;;;22.20;70.49;100725.15;104104;279;119303;-54
2023/06/25 04:08:45;;;;;;;8.10;6.60;;;;;;;21.46;69.77;100728.70;104071;278;105192;-54
2023/06/25 04:11:20;;;;;;;8.40;6.80;;;;;;;20.70;69.95;100733.15;104110;278;115013;-54
2023/06/25 04:14:13;;;;;;;7.90;6.60;;;;;;;19.96;70.36;100742.55;104491;279;94741;-54
2023/06/25 04:16:46;;;;;;;;;;;;;;;19.60;70.55;100744.65;104566;279;96620;-54
2023/06/25 04:19:20;;;;;;;8.30;7.40;;;;;;;19.31;70.92;100744.28;104104;279;121386;-54
2023/06/25 04:21:53;;;;;;;11.30;8.10;;;;;;;19.12;71.13;100746.38;104125;278;103363;-57
2023/06/25 04:24:28;;;;;;;11.50;7.50;;;;;;;19.14;71.51;100744.20;104086;278;113981;-57
2023/06/25 04:27:02;;;;;;;10.40;7.40;;;;;;;19.16;71.61;100746.39;104526;278;94140;-54
2023/06/25 04:29:34;;;;;;;;;;;;;;;19.20;71.38;100744.67;104162;278;98043;-54
2023/06/25 04:32:10;;;;;;;10.10;7.20;;;;;;;19.21;71.51;100746.06;104126;278;120923;-54
2023/06/25 04:34:44;;;;;;;10.70;7.80;;;;;;;19.61;71.39;100744.52;104150;278;103146;-54
2023/06/25 04:37:17;;;;;;;;;;;;;;;20.16;70.88;100740.10;104511;278;114420;-57
2023/06/25 04:39:51;;;;;;;10.60;8.50;;;;;;;21.05;69.83;100732.14;103943;279;92338;-57
2023/06/25 04:42:26;;;;;;;10.50;7.70;;;;;;;20.84;69.44;100732.56;104468;278;96589;-56
2023/06/25 04:45:00;;;;;;;8.90;7.50;;;;;;;20.60;69.41;100729.30;104062;282;120590;-54
2023/06/25 04:47:33;;;;;;;;;;;;;;;20.86;69.26;100730.04;104478;278;105584;-53
2023/06/25 04:50:08;;;;;;;10.60;8.10;;;;;;;21.68;68.81;100726.71;104497;278;114314;-54
2023/06/25 04:52:41;;;;;;;10.40;8.20;;;;;;;22.93;67.63;100730.48;104066;278;94351;-54
2023/06/25 04:55:14;;;;;;;;;;;;;;;23.76;66.53;100728.45;104108;278;95907;-57
2023/06/25 04:57:48;;;;;;;8.50;7.70;;;;;;;24.26;65.27;100725.02;104530;278;120330;-57
2023/06/25 05:00:22;;;;;;;10.80;8.50;;;;;;;24.48;64.02;100725.51;104533;279;105363;-54
2023/06/25 05:02:56;;;;;;;9.50;8.20;;;;;;;25.05;63.46;100718.52;104103;278;114228;-54
2023/06/25 05:05:32;;;;;;;8.70;7.70;;;;;;;26.14;61.71;100716.84;104107;279;93778;-57
2023/06/25 05:08:06;;;;;;;8.20;7.40;;;;;;;27.06;60.26;100714.99;104132;278;97669;-57
2023/06/25 05:10:41;;;;;;;9.20;7.40;;;;;;;28.16;58.77;100715.16;104092;278;120638;-55
2023/06/25 05:13:15;;;;;;;8.90;8.00;;;;;;;29.05;56.45;100712.41;104112;278;105230;-55
2023/06/25 05:15:50;;;;;;;8.00;7.20;;;;;;;29.47;54.83;100711.70;104539;279;113151;-57
2023/06/25 05:18:24;;;;;;;8.40;7.60;;;;;;;30.36;53.57;100711.98;104107;279;93728;-57
2023/06/25 05:20:58;;;;;;;9.70;7.20;;;;;;;30.83;52.09;100705.61;104106;276;98068;-54
2023/06/25 05:23:43;;;;;;;8.80;7.70;;;;;;;31.14;50.92;100704.89;104112;278;121623;-54
2023/06/25 05:26:17;;;;;;;7.80;6.90;;;;;;;31.76;49.90;100704.23;104136;282;105931;-54
2023/06/25 05:28:51;;;;;;;7.70;6.90;;;;;;;32.15;48.32;100703.79;104087;279;114963;-54
2023/06/25 05:31:25;;;;;;;7.80;7.10;;;;;;;32.44;46.99;100709.98;104064;278;93726;-55
2023/06/25 05:34:00;;;;;;;6.40;5.80;;;;;;;32.56;46.08;100713.54;104129;278;97666;-57
2023/06/25 05:36:34;;;;;;;7.90;7.10;;;;;;;33.01;44.71;100715.34;104096;278;121139;-57
2023/06/25 05:39:08;;;;;;;7.40;6.70;;;;;;;33.03;44.38;100717.64;104101;278;106543;-57
2023/06/25 05:41:45;;;;;;;8.00;7.20;;;;;;;33.01;43.53;100721.23;103926;279;116013;-55
2023/06/25 05:44:19;;;;;;;7.40;6.70;;;;;;;33.11;42.51;100719.55;103935;278;94751;-65
2023/06/25 05:46:54;;;;;;;7.10;6.50;;;;;;;33.15;42.24;100718.06;104144;279;98000;-55
2023/06/25 05:49:30;;;;;;;7.50;6.80;;;;;;;33.15;42.30;100713.86;104093;279;118721;-54
2023/06/25 05:52:06;;;;;;;7.80;6.00;;;;;;;33.71;41.56;100705.39;104115;278;104249;-55
2023/06/25 05:54:40;;;;;;;7.50;6.40;;;;;;;34.06;41.18;100707.19;104094;279;114521;-55
2023/06/25 05:57:14;;;;;;;7.30;6.60;;;;;;;34.09;40.34;100707.07;103967;279;94637;-57
2023/06/25 05:59:48;;;;;;;6.20;5.60;;;;;;;34.26;39.46;100707.63;104106;279;97139;-57
2023/06/25 06:02:23;;;;;;;7.00;6.30;;;;;;;34.14;38.72;100705.63;104070;279;120253;-54
2023/06/25 06:04:57;;;;;;;6.70;5.60;;;;;;;34.26;38.93;100704.89;103930;279;105642;-56
2023/06/25 06:07:31;;;;;;;6.10;5.50;;;;;;;34.84;38.19;100699.95;104437;279;114373;-57
2023/06/25 06:10:05;;;;;;;6.30;5.60;;;;;;;34.83;37.80;100695.84;104029;279;93784;-57
2023/06/25 06:12:39;;;;;;;6.70;6.10;;;;;;;35.18;37.83;100694.48;104051;279;96457;-57
2023/06/25 06:15:15;;;;;;;5.70;5.10;;;;;;;35.45;37.08;100695.40;104087;279;120427;-55
2023/06/25 06:17:49;;;;;;;6.70;5.40;;;;;;;36.09;36.76;100694.70;104062;279;105318;-55
2023/06/25 06:20:24;;;;;;;5.60;5.10;;;;;;;36.08;35.81;100698.27;104466;268;114453;-55
2023/06/25 06:22:58;;;;;;;6.20;5.60;;;;;;;35.85;35.18;100700.38;104077;279;94686;-55
2023/06/25 06:25:32;;;;;;;5.70;5.20;;;;;;;36.01;35.06;100698.67;104099;279;96406;-57
2023/06/25 06:28:06;;;;;;;6.60;5.10;;;;;;;36.43;35.05;100701.80;104070;279;120581;-57
2023/06/25 06:30:40;;;;;;;5.20;4.80;;;;;;;36.63;34.51;100702.52;103632;279;595828;-57
2023/06/25 06:33:15;;;;;;;5.40;4.90;;;;;;;36.82;33.85;100704.44;104071;279;115000;-57
2023/06/25 06:35:49;;;;;;;9.50;5.70;;;;;;;36.82;33.71;100705.83;104421;279;95385;-54
2023/06/25 06:38:24;;;;;;;5.10;4.70;;;;;;;37.16;33.16;100704.75;104054;279;97533;-54
2023/06/25 06:40:58;;;;;;;5.60;4.90;;;;;;;37.76;32.68;100699.85;104475;279;120617;-54
2023/06/25 06:43:32;;;;;;;5.10;4.70;;;;;;;37.86;32.17;100702.60;104033;279;104410;-54
2023/06/25 06:46:10;;;;;;;4.70;4.30;;;;;;;37.98;31.78;100703.56;103992;279;113223;-57
2023/06/25 06:48:45;;;;;;;5.70;4.40;;;;;;;37.95;31.27;100698.96;104023;279;93859;-54
2023/06/25 06:51:19;;;;;;;4.60;4.20;;;;;;;37.88;30.97;100702.33;104037;279;97820;-57
2023/06/25 06:53:56;;;;;;;5.10;4.60;;;;;;;37.97;30.89;100703.52;104001;280;119949;-57
2023/06/25 06:56:33;;;;;;;5.30;4.80;;;;;;;38.01;30.59;100704.13;104120;277;104860;-55
2023/06/25 06:59:08;;;;;;;5.40;4.80;;;;;;;37.99;30.79;100704.30;104102;278;114369;-55
2023/06/25 07:01:42;;;;;;;4.70;4.20;;;;;;;38.27;30.09;100702.89;104136;277;95003;-57
2023/06/25 07:04:16;;;;;;;5.00;4.50;;;;;;;38.28;29.89;100704.20;104132;277;97689;-57
2023/06/25 07:06:51;;;;;;;5.30;4.70;;;;;;;38.37;29.36;100701.92;104654;277;121142;-54
2023/06/25 07:09:27;;;;;;;5.30;4.80;;;;;;;38.84;29.44;100697.89;104143;277;105283;-55
2023/06/25 07:12:01;;;;;;;5.00;4.60;;;;;;;38.82;28.86;100694.63;104135;278;113848;-57
2023/06/25 07:14:35;;;;;;;4.90;4.40;;;;;;;38.27;28.88;100695.06;104175;277;91607;-57
2023/06/25 07:17:09;;;;;;;5.00;4.60;;;;;;;38.30;28.62;100695.13;104184;277;96609;-57
2023/06/25 07:19:43;;;;;;;5.20;4.70;;;;;;;37.75;28.79;100693.92;104609;277;121271;-57
2023/06/25 07:22:18;;;;;;;4.90;4.50;;;;;;;37.69;28.81;100693.45;104639;277;103492;-56
2023/06/25 07:24:54;;;;;;;5.30;4.80;;;;;;;37.71;28.92;100687.55;104141;277;114466;-56
2023/06/25 07:27:28;;;;;;;5.20;4.60;;;;;;;37.94;29.18;100684.75;104088;277;94480;-54
2023/06/25 07:30:03;;;;;;;5.10;4.60;;;;;;;38.12;29.12;100683.82;104150;277;97992;-54
2023/06/25 07:32:37;;;;;;;5.30;4.80;;;;;;;38.26;28.82;100684.64;104099;277;119499;-54
2023/06/25 07:35:12;;;;;;;5.00;4.50;;;;;;;38.26;29.14;100684.31;104132;277;105764;-56
2023/06/25 07:37:46;;;;;;;4.90;4.40;;;;;;;38.41;29.32;100686.30;104082;278;114173;-57
2023/06/25 07:40:21;;;;;;;5.80;5.10;;;;;;;38.62;28.90;100682.08;104089;279;94206;-56
2023/06/25 07:42:55;;;;;;;5.10;4.50;;;;;;;38.32;28.33;100676.23;104114;279;97884;-59
2023/06/25 07:45:28;;;;;;;4.90;4.50;;;;;;;37.90;28.19;100678.29;103927;279;120695;-57
2023/06/25 07:48:02;;;;;;;4.90;4.50;;;;;;;37.83;28.23;100677.93;104493;279;105938;-57
2023/06/25 07:50:36;;;;;;;5.00;4.50;;;;;;;37.61;28.33;100671.34;104073;279;114977;-55
2023/06/25 07:53:12;;;;;;;5.10;4.60;;;;;;;37.93;28.10;100667.79;104101;278;95402;-55
2023/06/25 07:55:49;;;;;;;6.10;4.40;;;;;;;38.35;27.95;100667.20;103941;280;98527;-57
2023/06/25 07:58:23;;;;;;;5.10;4.60;;;;;;;38.60;28.40;100663.88;104513;279;121295;-57
2023/06/25 08:00:57;;;;;;;5.50;4.50;;;;;;;38.87;28.27;100660.17;103942;280;105256;-57
2023/06/25 08:03:31;;;;;;;5.90;4.60;;;;;;;38.54;28.01;100660.04;104102;279;112739;-57
2023/06/25 08:06:06;;;;;;;4.90;4.50;;;;;;;38.50;28.19;100657.52;104072;278;93015;-55
2023/06/25 08:08:40;;;;;;;5.30;4.80;;;;;;;38.48;28.13;100657.26;104094;279;97126;-54
2023/06/25 08:11:15;;;;;;;6.20;4.40;;;;;;;38.83;27.83;100654.28;104094;279;119760;-58
2023/06/25 08:13:48;;;;;;;5.30;4.80;;;;;;;38.78;27.50;100653.86;104510;279;103141;-55
2023/06/25 08:16:23;;;;;;;5.20;4.70;;;;;;;38.51;28.20;100654.08;104082;279;114963;-55
2023/06/25 08:18:57;;;;;;;5.10;4.60;;;;;;;38.77;28.02;100656.90;104095;279;93494;-55
2023/06/25 08:21:31;;;;;;;5.00;4.60;;;;;;;38.83;28.09;100656.64;104122;278;98198;-54
2023/06/25 08:24:07;;;;;;;5.20;4.70;;;;;;;38.64;27.89;100658.08;104129;279;119693;-54
2023/06/25 08:26:41;;;;;;;4.90;4.50;;;;;;;38.71;27.70;100658.95;104117;278;105495;-54
2023/06/25 08:29:15;;;;;;;5.90;4.40;;;;;;;38.78;28.29;100660.41;104081;279;114352;-54
2023/06/25 08:31:49;;;;;;;5.00;4.50;;;;;;;38.86;28.20;100658.31;103921;280;94585;-57
2023/06/25 08:34:23;;;;;;;4.90;4.40;;;;;;;39.04;27.99;100655.04;104117;279;97699;-57
2023/06/25 08:36:58;;;;;;;4.90;4.40;;;;;;;39.15;27.97;100657.34;104107;279;120247;-54
2023/06/25 08:39:32;;;;;;;4.90;4.50;;;;;;;39.44;27.43;100658.40;104100;279;105946;-57
2023/06/25 08:42:07;;;;;;;4.90;4.40;;;;;;;39.37;27.24;100659.31;104104;278;112905;-57
2023/06/25 08:44:43;;;;;;;5.40;4.50;;;;;;;39.45;26.83;100652.83;104079;278;95040;-57
2023/06/25 08:47:20;;;;;;;4.90;4.40;;;;;;;39.28;26.64;100647.02;104130;279;96973;-57
2023/06/25 08:49:56;;;;;;;5.00;4.60;;;;;;;38.41;26.57;100646.91;104072;278;121637;-56
2023/06/25 08:52:31;;;;;;;4.20;3.80;;;;;;;37.51;26.59;100648.27;104113;278;105841;-54
2023/06/25 08:55:09;;;;;;;5.00;4.50;;;;;;;37.03;26.79;100645.91;104100;279;116141;-54
2023/06/25 08:57:45;;;;;;;4.50;4.10;;;;;;;36.73;27.44;100643.77;104109;278;93461;-53
2023/06/25 09:00:21;;;;;;;5.20;4.60;;;;;;;36.65;27.76;100645.14;104135;279;97496;-57
2023/06/25 09:02:56;;;;;;;6.10;5.40;;;;;;;36.20;27.90;100646.40;104099;279;120374;-58
2023/06/25 09:05:30;;;;;;;5.90;5.30;;;;;;;35.93;28.48;100646.57;104092;279;106383;-60
2023/06/25 09:08:14;;;;;;;6.80;5.20;;;;;;;35.55;28.82;100646.75;104075;278;112669;-61
2023/06/25 09:10:54;;;;;;;6.70;5.10;;;;;;;35.48;28.85;100652.45;104525;279;93377;-61
2023/06/25 09:13:30;;;;;;;4.90;4.10;;;;;;;34.59;28.68;100651.59;104079;279;97103;-60
2023/06/25 09:16:08;;;;;;;5.20;4.70;;;;;;;33.69;29.28;100649.30;103901;278;120811;-59
2023/06/25 09:18:43;;;;;;;5.00;4.50;;;;;;;33.19;29.95;100651.90;104079;279;103179;-56
2023/06/25 09:21:17;;;;;;;5.00;4.50;;;;;;;32.78;30.43;100659.71;104085;279;114202;-54
2023/06/25 09:23:55;;;;;;;4.90;4.40;;;;;;;31.79;30.56;100657.75;104094;278;94969;-59
2023/06/25 09:26:29;;;;;;;5.50;4.90;;;;;;;31.77;31.43;100655.02;104112;279;98265;-56
2023/06/25 09:29:05;;;;;;;5.30;4.80;;;;;;;31.72;31.98;100652.88;104094;279;121037;-56
2023/06/25 09:31:41;;;;;;;5.40;4.80;;;;;;;31.96;32.74;100650.44;104126;278;104140;-54
2023/06/25 09:34:17;;;;;;;5.00;4.60;;;;;;;32.22;33.35;100647.06;104139;278;114382;-55
2023/06/25 09:36:51;;;;;;;5.10;4.20;;;;;;;32.13;32.33;100645.26;104533;278;93522;-56
2023/06/25 09:39:26;;;;;;;4.30;3.90;;;;;;;31.41;32.12;100649.48;103956;279;100003;-56
2023/06/25 09:42:01;;;;;;;7.00;4.40;;;;;;;31.12;32.55;100641.31;104142;278;121019;-54
2023/06/25 09:44:38;;;;;;;5.40;4.90;;;;;;;31.24;33.03;100638.55;103952;279;107129;-54
2023/06/25 09:47:15;;;;;;;5.30;4.70;;;;;;;31.55;33.41;100634.90;104091;279;114036;-56
2023/06/25 09:49:51;;;;;;;6.00;5.10;;;;;;;31.69;32.76;100631.02;103916;279;95156;-56
2023/06/25 09:52:27;;;;;;;5.50;4.50;;;;;;;31.63;32.78;100625.98;104111;279;97870;-56
2023/06/25 09:55:03;;;;;;;5.40;4.90;;;;;;;31.76;32.96;100623.89;104089;279;121349;-56
2023/06/25 09:57:37;;;;;;;5.30;4.80;;;;;;;31.53;32.47;100625.77;104141;278;106261;-57
2023/06/25 10:00:16;;;;;;;5.30;4.70;;;;;;;30.83;32.27;100621.08;104515;279;113045;-56
2023/06/25 10:02:50;;;;;;;4.80;4.30;;;;;;;30.06;32.77;100621.14;104082;282;93895;-56
2023/06/25 10:05:24;;;;;;;6.00;4.70;;;;;;;29.73;33.69;100617.93;104101;279;98306;-56
2023/06/25 10:07:59;;;;;;;5.50;4.60;;;;;;;29.58;34.07;100618.75;104492;278;120110;-56
2023/06/25 10:10:33;;;;;;;4.70;4.30;;;;;;;29.30;34.53;100619.14;104078;279;105741;-56
2023/06/25 10:13:08;;;;;;;4.80;4.40;;;;;;;29.05;34.96;100624.44;104099;278;113254;-56
2023/06/25 10:15:42;;;;;;;7.60;4.60;;;;;;;28.78;35.34;100622.31;104101;279;93678;-54
2023/06/25 10:18:24;;;;;;;4.70;4.30;;;;;;;28.98;35.80;100619.83;104099;279;96640;-54
2023/06/25 10:21:02;;;;;;;5.90;4.90;;;;;;;29.25;35.25;100616.29;104107;279;120863;-56
2023/06/25 10:23:40;;;;;;;5.90;5.30;;;;;;;29.55;34.40;100613.08;104093;279;104742;-56
2023/06/25 10:26:17;;;;;;;5.10;4.60;;;;;;;29.84;34.37;100612.35;104084;279;113237;-56
2023/06/25 10:28:56;;;;;;;4.90;4.40;;;;;;;30.25;35.04;100614.27;104089;279;93308;-56
2023/06/25 10:31:38;;;;;;;6.00;4.70;;;;;;;30.18;34.61;100620.52;104097;279;97859;-56
2023/06/25 10:34:14;;;;;;;6.40;4.50;;;;;;;29.66;34.54;100619.26;104106;279;119751;-56
2023/06/25 10:36:54;;;;;;;5.10;4.60;;;;;;;29.27;35.00;100617.91;104542;278;103046;-54
2023/06/25 10:39:38;;;;;;;5.40;4.80;;;;;;;29.41;35.64;100613.80;104076;278;114122;-54
2023/06/25 10:42:13;;;;;;;5.90;4.50;;;;;;;29.54;35.23;100609.35;104502;279;93769;-56
2023/06/25 10:44:49;;;;;;;6.70;4.80;;;;;;;29.25;34.97;100610.05;104557;278;97903;-56
2023/06/25 10:47:26;;;;;;;5.60;5.10;;;;;;;29.10;35.18;100608.44;104593;277;120297;-54
2023/06/25 10:50:01;;;;;;;5.70;4.50;;;;;;;28.87;34.89;100606.73;104124;277;105009;-55
2023/06/25 10:52:36;;;;;;;5.20;4.70;;;;;;;28.73;35.41;100606.27;104131;277;113616;-61
2023/06/25 10:55:16;;;;;;;6.40;5.00;;;;;;;28.78;36.37;100606.52;104120;277;94495;-62
2023/06/25 10:57:53;;;;;;;5.80;5.20;;;;;;;28.79;36.90;100607.73;104143;277;97012;-61
2023/06/25 11:00:39;;;;;;;5.10;4.60;;;;;;;28.84;37.59;100606.70;104139;277;119953;-62
2023/06/25 11:03:21;;;;;;;6.00;5.00;;;;;;;28.85;37.17;100610.00;103938;280;105044;-62
2023/06/25 11:05:59;;;;;;;6.10;5.00;;;;;;;28.88;37.24;100604.35;104114;277;113260;-61
2023/06/25 11:08:34;;;;;;;7.30;5.40;;;;;;;28.92;37.20;100602.36;104086;279;94663;-61
2023/06/25 11:11:09;;;;;;;7.70;5.60;;;;;;;28.70;37.24;100603.92;104162;277;98105;-62
2023/06/25 11:13:43;;;;;;;5.30;4.30;;;;;;;28.46;37.12;100601.18;104188;277;119823;-62
2023/06/25 11:16:20;;;;;;;5.40;4.80;;;;;;;28.23;37.15;100600.84;103989;284;104319;-65
2023/06/25 11:18:55;;;;;;;5.50;4.90;;;;;;;28.08;37.34;100601.56;103942;277;114031;-64
2023/06/25 11:21:36;;;;;;;6.90;4.70;;;;;;;28.10;37.28;100600.70;104198;277;92561;-62
2023/06/25 11:24:14;;;;;;;5.80;5.10;;;;;;;28.06;37.43;100597.76;104209;277;97154;-63
2023/06/25 11:26:48;;;;;;;6.50;5.10;;;;;;;28.35;37.75;100587.30;104167;277;120027;-63
2023/06/25 11:29:25;;;;;;;7.20;5.30;;;;;;;28.86;38.09;100585.23;104149;277;105196;-64
2023/06/25 11:32:00;;;;;;;6.10;5.10;;;;;;;28.88;37.66;100583.77;104143;277;114681;-61
2023/06/25 11:34:35;;;;;;;5.70;5.20;;;;;;;29.01;37.69;100584.00;104223;277;94837;-62
2023/06/25 11:37:27;;;;;;;6.30;5.40;;;;;;;29.33;37.36;100582.24;104190;277;96837;-62
2023/06/25 11:40:02;;;;;;;6.70;5.20;;;;;;;29.52;36.87;100577.16;103951;277;121500;-61
2023/06/25 11:42:43;;;;;;;5.40;4.90;;;;;;;29.64;36.83;100570.84;104261;277;103853;-62
2023/06/25 11:45:25;;;;;;;5.80;4.80;;;;;;;29.89;36.43;100571.23;104353;277;112451;-61
2023/06/25 11:48:03;;;;;;;5.00;4.40;;;;;;;29.68;36.34;100568.01;104340;277;93547;-61
2023/06/25 11:50:45;;;;;;;6.80;5.00;;;;;;;29.42;36.36;100572.92;104351;277;96346;-62
2023/06/25 11:53:21;;;;;;;5.40;4.90;;;;;;;28.94;36.32;100569.01;104349;277;120588;-63
2023/06/25 11:55:57;;;;;;;5.90;5.00;;;;;;;28.55;36.14;100566.78;104829;277;104437;-64